createdAt,value
2019-03-24T00:02:28.345Z,33.88
2019-03-24T00:04:59.470Z,33.70
2019-03-24T00:07:30.434Z,34.50
2019-03-24T00:10:00.374Z,35.83
2019-03-24T00:12:31.756Z,34.78
2019-03-24T00:15:01.708Z,33.97
2019-03-24T00:17:31.640Z,33.28
2019-03-24T00:20:04.124Z,34.63
2019-03-24T00:22:34.173Z,35.20
2019-03-24T00:25:04.904Z,34.70
2019-03-24T00:27:35.689Z,34.00
2019-03-24T00:30:07.024Z,34.25
2019-03-24T00:32:36.952Z,31.90
2019-03-24T00:35:09.232Z,32.80
2019-03-24T00:37:39.708Z,34.53
2019-03-24T00:40:10.387Z,32.20
2019-03-24T00:42:40.324Z,34.10
2019-03-24T00:45:10.685Z,33.70
2019-03-24T00:47:41.366Z,33.92
2019-03-24T00:50:12.049Z,36.67
2019-03-24T00:52:42.254Z,36.77
2019-03-24T00:55:12.540Z,36.90
2019-03-24T00:57:44.141Z,36.97
2019-03-24T01:00:15.209Z,35.17
2019-03-24T01:02:45.172Z,33.80
2019-03-24T01:05:16.336Z,34.65
2019-03-24T01:07:46.241Z,34.50
2019-03-24T01:10:18.221Z,35.54
2019-03-24T01:12:48.164Z,34.60
2019-03-24T01:15:18.576Z,32.30
2019-03-24T01:17:48.513Z,34.20
2019-03-24T01:20:19.520Z,33.08
2019-03-24T01:22:49.433Z,35.20
2019-03-24T01:25:19.737Z,34.43
2019-03-24T01:27:50.371Z,36.10
2019-03-24T01:30:21.488Z,32.87
2019-03-24T01:32:51.412Z,33.43
2019-03-24T01:35:25.294Z,31.77
2019-03-24T01:37:55.267Z,32.77
2019-03-24T01:40:26.496Z,31.97
2019-03-24T01:42:56.468Z,31.13
2019-03-24T01:45:26.552Z,32.60
2019-03-24T01:47:57.591Z,33.07
2019-03-24T01:50:28.196Z,32.03
2019-03-24T01:52:58.458Z,32.97
2019-03-24T01:55:28.364Z,32.67
2019-03-24T01:57:58.739Z,30.40
2019-03-24T02:00:29.701Z,32.13
2019-03-24T02:03:01.049Z,32.60
2019-03-24T02:05:33.225Z,30.53
2019-03-24T02:08:03.129Z,31.00
2019-03-24T02:10:33.049Z,31.77
2019-03-24T02:13:03.043Z,32.40
2019-03-24T02:15:34.458Z,32.03
2019-03-24T02:18:06.443Z,31.00
2019-03-24T02:20:40.012Z,31.10
2019-03-24T02:23:10.267Z,31.77
2019-03-24T02:25:40.184Z,33.03
2019-03-24T02:28:10.123Z,32.10
2019-03-24T02:30:40.569Z,32.40
2019-03-24T02:33:12.409Z,30.65
2019-03-24T02:35:42.933Z,30.50
2019-03-24T02:38:12.862Z,30.83
2019-03-24T02:40:44.017Z,31.93
2019-03-24T02:43:14.351Z,32.33
2019-03-24T02:45:44.561Z,32.00
2019-03-24T02:48:15.369Z,30.70
2019-03-24T02:50:46.092Z,30.80
2019-03-24T02:53:16.708Z,31.97
2019-03-24T02:55:46.625Z,32.38
2019-03-24T02:58:19.068Z,30.62
2019-03-24T03:00:49.737Z,30.70
2019-03-24T03:03:19.602Z,33.92
2019-03-24T03:05:50.408Z,30.63
2019-03-24T03:08:20.345Z,30.43
2019-03-24T03:10:50.402Z,31.40
2019-03-24T03:13:20.730Z,30.57
2019-03-24T03:15:50.722Z,31.95
2019-03-24T03:18:20.636Z,30.60
2019-03-24T03:20:50.706Z,31.20
2019-03-24T03:23:20.637Z,32.35
2019-03-24T03:25:50.999Z,31.47
2019-03-24T03:28:21.846Z,31.57
2019-03-24T03:30:51.766Z,31.10
2019-03-24T03:33:22.033Z,33.23
2019-03-24T03:35:51.989Z,32.70
2019-03-24T03:38:21.942Z,32.00
2019-03-24T03:40:52.331Z,32.60
2019-03-24T03:43:23.622Z,31.90
2019-03-24T03:45:53.579Z,30.63
2019-03-24T03:48:25.481Z,30.70
2019-03-24T03:50:55.444Z,32.27
2019-03-24T03:53:25.361Z,33.90
2019-03-24T03:55:55.307Z,33.60
2019-03-24T03:58:26.061Z,33.13
2019-03-24T04:00:57.754Z,35.03
2019-03-24T04:03:28.108Z,33.80
2019-03-24T04:05:58.053Z,31.97
2019-03-24T04:08:29.827Z,32.80
2019-03-24T04:11:00.954Z,30.05
2019-03-24T04:13:31.810Z,32.50
2019-03-24T04:16:02.257Z,40.47
2019-03-24T04:18:34.602Z,35.47
2019-03-24T04:21:04.578Z,34.27
2019-03-24T04:23:34.513Z,34.40
2019-03-24T04:26:05.346Z,31.40
2019-03-24T04:28:36.113Z,29.60
2019-03-24T04:31:06.040Z,29.23
2019-03-24T04:33:35.973Z,30.47
2019-03-24T04:36:05.939Z,30.00
2019-03-24T04:38:36.032Z,29.03
2019-03-24T04:41:09.303Z,29.43
2019-03-24T04:43:42.101Z,31.47
2019-03-24T04:46:11.960Z,30.97
2019-03-24T04:48:42.407Z,31.33
2019-03-24T04:51:18.439Z,32.30
2019-03-24T04:53:50.189Z,29.83
2019-03-24T04:56:20.913Z,30.87
2019-03-24T04:58:51.835Z,30.73
2019-03-24T05:01:23.636Z,29.07
2019-03-24T05:03:53.852Z,28.52
2019-03-24T05:06:24.623Z,29.82
2019-03-24T05:08:54.532Z,30.37
2019-03-24T05:11:24.444Z,28.00
2019-03-24T05:13:54.752Z,31.93
2019-03-24T05:16:25.025Z,31.33
2019-03-24T05:18:54.971Z,29.27
2019-03-24T05:21:25.518Z,30.55
2019-03-24T05:23:55.800Z,31.40
2019-03-24T05:26:25.729Z,30.13
2019-03-24T05:28:56.757Z,31.85
2019-03-24T05:31:26.700Z,30.60
2019-03-24T05:33:56.637Z,31.55
2019-03-24T05:36:26.950Z,31.97
2019-03-24T05:38:56.860Z,28.33
2019-03-24T05:41:27.800Z,30.73
2019-03-24T05:43:57.773Z,31.90
2019-03-24T05:46:27.736Z,32.00
2019-03-24T05:48:57.636Z,29.27
2019-03-24T05:51:28.219Z,31.20
2019-03-24T05:53:58.121Z,30.70
2019-03-24T05:56:28.408Z,30.47
2019-03-24T05:58:59.517Z,30.80
2019-03-24T06:01:30.703Z,32.28
2019-03-24T06:04:01.465Z,31.23
2019-03-24T06:06:31.866Z,31.40
2019-03-24T06:09:02.733Z,30.07
2019-03-24T06:11:32.584Z,30.12
2019-03-24T06:14:02.655Z,31.30
2019-03-24T06:16:32.573Z,31.65
2019-03-24T06:19:02.498Z,31.20
2019-03-24T06:21:32.470Z,29.53
2019-03-24T06:24:03.015Z,30.10
2019-03-24T06:26:34.703Z,30.80
2019-03-24T06:29:05.192Z,30.70
2019-03-24T06:31:35.113Z,30.88
2019-03-24T06:34:07.761Z,31.00
2019-03-24T06:36:37.699Z,31.12
2019-03-24T06:39:08.828Z,31.48
2019-03-24T06:41:38.971Z,29.50
2019-03-24T06:44:08.973Z,30.97
2019-03-24T06:46:38.887Z,29.30
2019-03-24T06:49:08.824Z,29.67
2019-03-24T06:51:38.771Z,30.37
2019-03-24T06:54:08.693Z,28.60
2019-03-24T06:56:38.616Z,29.98
2019-03-24T06:59:08.548Z,30.80
2019-03-24T07:01:38.453Z,29.72
2019-03-24T07:04:08.384Z,30.30
2019-03-24T07:06:38.604Z,32.43
2019-03-24T07:09:08.538Z,30.75
2019-03-24T07:11:38.444Z,29.13
2019-03-24T07:14:08.410Z,28.63
2019-03-24T07:16:38.313Z,26.33
2019-03-24T07:19:10.693Z,28.07
2019-03-24T07:21:40.659Z,27.50
2019-03-24T07:24:10.577Z,27.43
2019-03-24T07:26:40.696Z,25.93
2019-03-24T07:29:11.090Z,29.70
2019-03-24T07:31:42.708Z,30.77
2019-03-24T07:34:14.983Z,31.00
2019-03-24T07:36:45.844Z,29.20
2019-03-24T07:39:18.086Z,32.80
2019-03-24T07:41:49.381Z,30.27
2019-03-24T07:44:20.209Z,30.47
2019-03-24T07:46:50.088Z,30.50
2019-03-24T07:49:20.907Z,30.03
2019-03-24T07:51:51.160Z,29.80
2019-03-24T07:54:21.212Z,28.67
2019-03-24T07:56:52.344Z,29.43
2019-03-24T07:59:22.773Z,31.35
2019-03-24T08:01:53.903Z,32.03
2019-03-24T08:04:24.650Z,32.10
2019-03-24T08:06:55.265Z,32.50
2019-03-24T08:09:25.666Z,30.93
2019-03-24T08:11:55.600Z,33.20
2019-03-24T08:14:26.053Z,32.10
2019-03-24T08:17:06.328Z,33.00
2019-03-24T08:19:42.983Z,33.53
2019-03-24T08:22:13.562Z,32.83
2019-03-24T08:24:43.625Z,31.80
2019-03-24T08:27:14.639Z,31.68
2019-03-24T08:29:45.181Z,33.48
2019-03-24T08:32:16.446Z,32.67
2019-03-24T08:34:48.313Z,30.97
2019-03-24T08:37:22.443Z,31.30
2019-03-24T08:39:52.645Z,32.40
2019-03-24T08:42:29.457Z,32.00
2019-03-24T08:45:01.007Z,32.90
2019-03-24T08:47:32.873Z,32.30
2019-03-24T08:50:03.146Z,32.87
2019-03-24T08:52:36.617Z,32.97
2019-03-24T08:55:08.564Z,34.00
2019-03-24T08:57:39.944Z,33.80
2019-03-24T09:00:11.262Z,36.00
2019-03-24T09:02:42.423Z,32.77
2019-03-24T09:05:13.587Z,32.60
2019-03-24T09:07:43.944Z,34.58
2019-03-24T09:10:15.090Z,36.13
2019-03-24T09:12:45.061Z,34.47
2019-03-24T09:15:15.980Z,33.03
2019-03-24T09:17:46.362Z,32.93
2019-03-24T09:20:17.792Z,33.98
2019-03-24T09:22:48.068Z,33.80
2019-03-24T09:25:18.762Z,33.20
2019-03-24T09:27:48.648Z,34.10
2019-03-24T09:30:32.631Z,34.40
2019-03-24T09:33:02.543Z,35.57
2019-03-24T09:35:33.702Z,34.65
2019-03-24T09:38:05.478Z,35.30
2019-03-24T09:40:35.901Z,33.40
2019-03-24T09:43:08.380Z,34.37
2019-03-24T09:45:42.468Z,35.70
2019-03-24T09:48:14.891Z,35.63
2019-03-24T09:50:47.305Z,35.93
2019-03-24T09:53:19.844Z,33.63
2019-03-24T09:55:50.095Z,34.93
2019-03-24T09:58:20.126Z,34.07
2019-03-24T10:00:50.700Z,33.17
2019-03-24T10:03:21.376Z,33.10
2019-03-24T10:05:51.441Z,34.10
2019-03-24T10:08:22.808Z,34.97
2019-03-24T10:10:52.756Z,34.95
2019-03-24T10:13:26.411Z,34.90
2019-03-24T10:15:57.265Z,37.47
2019-03-24T10:18:28.113Z,36.03
2019-03-24T10:20:58.343Z,38.17
2019-03-24T10:23:28.609Z,38.20
2019-03-24T10:25:59.750Z,39.57
2019-03-24T10:28:30.181Z,41.70
2019-03-24T10:31:01.221Z,41.37
2019-03-24T10:33:31.161Z,40.13
2019-03-24T10:36:01.435Z,39.37
2019-03-24T10:38:31.769Z,41.90
2019-03-24T10:41:01.738Z,40.60
2019-03-24T10:43:34.986Z,40.80
2019-03-24T10:46:04.986Z,39.80
2019-03-24T10:48:35.491Z,41.80
2019-03-24T10:51:08.886Z,39.80
2019-03-24T10:53:40.214Z,41.17
2019-03-24T10:56:10.597Z,41.17
2019-03-24T10:58:40.501Z,40.57
2019-03-24T11:01:10.536Z,40.57
2019-03-24T11:03:40.452Z,39.83
2019-03-24T11:06:10.404Z,40.63
2019-03-24T11:08:40.757Z,41.17
2019-03-24T11:11:10.686Z,42.45
2019-03-24T11:13:40.865Z,39.20
2019-03-24T11:16:11.273Z,38.80
2019-03-24T11:18:44.362Z,41.53
2019-03-24T11:21:14.351Z,39.97
2019-03-24T11:23:44.320Z,40.87
2019-03-24T11:26:15.040Z,39.97
2019-03-24T11:28:45.336Z,38.30
2019-03-24T11:31:16.896Z,39.05
2019-03-24T11:33:46.884Z,39.67
2019-03-24T11:36:18.986Z,39.20
2019-03-24T11:38:49.857Z,42.50
2019-03-24T11:41:19.836Z,40.13
2019-03-24T11:43:50.553Z,38.10
2019-03-24T11:46:21.312Z,39.90
2019-03-24T11:48:51.242Z,40.30
2019-03-24T11:51:21.532Z,40.13
2019-03-24T11:53:51.955Z,41.67
2019-03-24T11:56:23.009Z,39.78
2019-03-24T11:58:53.169Z,38.50
2019-03-24T12:01:23.704Z,39.86
2019-03-24T12:03:53.747Z,39.85
2019-03-24T12:06:24.584Z,38.60
2019-03-24T12:08:54.487Z,41.10
2019-03-24T12:11:24.639Z,40.30
2019-03-24T12:13:54.486Z,41.63
2019-03-24T12:16:24.760Z,38.55
2019-03-24T12:18:54.710Z,38.40
2019-03-24T12:21:24.928Z,38.70
2019-03-24T12:23:54.865Z,36.67
2019-03-24T12:26:25.163Z,36.53
2019-03-24T12:28:55.635Z,37.30
2019-03-24T12:31:25.772Z,35.87
2019-03-24T12:33:55.713Z,36.93
2019-03-24T12:36:26.055Z,39.05
2019-03-24T12:38:56.099Z,36.40
2019-03-24T12:41:26.280Z,36.63
2019-03-24T12:43:56.227Z,36.90
2019-03-24T12:46:27.850Z,38.33
2019-03-24T12:48:57.716Z,38.30
2019-03-24T12:51:27.657Z,38.58
2019-03-24T12:53:57.668Z,35.98
2019-03-24T12:56:27.643Z,38.05
2019-03-24T12:58:58.800Z,36.45
2019-03-24T13:01:29.178Z,39.10
2019-03-24T13:03:59.102Z,36.77
2019-03-24T13:06:29.353Z,37.80
2019-03-24T13:08:59.908Z,36.53
2019-03-24T13:11:30.098Z,37.03
2019-03-24T13:14:00.303Z,35.40
2019-03-24T13:16:30.701Z,35.83
2019-03-24T13:19:01.108Z,37.60
2019-03-24T13:21:31.018Z,39.60
2019-03-24T13:24:01.786Z,38.57
2019-03-24T13:26:31.712Z,38.60
2019-03-24T13:29:01.693Z,37.25
2019-03-24T13:31:31.939Z,38.42
2019-03-24T13:34:05.475Z,39.43
2019-03-24T13:36:37.551Z,40.03
2019-03-24T13:39:08.524Z,38.73
2019-03-24T13:41:38.854Z,37.97
2019-03-24T13:44:09.070Z,35.77
2019-03-24T13:46:40.190Z,36.97
2019-03-24T13:49:10.582Z,36.47
2019-03-24T13:51:41.161Z,36.80
2019-03-24T13:54:11.424Z,37.60
2019-03-24T13:56:45.422Z,37.20
2019-03-24T13:59:16.053Z,34.35
2019-03-24T14:01:45.956Z,35.47
2019-03-24T14:04:17.822Z,34.03
2019-03-24T14:06:47.755Z,36.33
2019-03-24T14:09:19.009Z,35.20
2019-03-24T14:11:49.187Z,35.40
2019-03-24T14:14:19.110Z,36.10
2019-03-24T14:16:49.066Z,36.87
2019-03-24T14:19:18.976Z,37.60
2019-03-24T14:21:48.916Z,36.80
2019-03-24T14:24:18.874Z,38.10
2019-03-24T14:26:49.070Z,37.20
2019-03-24T14:29:19.001Z,37.90
2019-03-24T14:31:49.310Z,34.57
2019-03-24T14:34:21.288Z,35.07
2019-03-24T14:36:51.529Z,37.60
2019-03-24T14:39:22.609Z,36.20
2019-03-24T14:41:52.459Z,37.07
2019-03-24T14:44:22.373Z,37.75
2019-03-24T14:46:53.664Z,37.73
2019-03-24T14:49:23.504Z,37.30
2019-03-24T14:51:53.693Z,37.57
2019-03-24T14:54:23.810Z,38.63
2019-03-24T14:56:53.749Z,35.73
2019-03-24T14:59:23.799Z,36.87
2019-03-24T15:01:54.578Z,36.90
2019-03-24T15:04:24.871Z,36.10
2019-03-24T15:06:56.850Z,37.53
2019-03-24T15:09:27.085Z,39.53
2019-03-24T15:11:57.037Z,39.07
2019-03-24T15:14:29.553Z,39.53
2019-03-24T15:16:59.801Z,55.00
2019-03-24T15:19:31.037Z,53.53
2019-03-24T15:22:01.353Z,41.77
2019-03-24T15:24:33.848Z,40.10
2019-03-24T15:27:04.053Z,39.60
2019-03-24T15:29:36.325Z,38.83
2019-03-24T15:32:06.956Z,40.70
2019-03-24T15:34:36.865Z,42.63
2019-03-24T15:37:09.134Z,40.10
2019-03-24T15:39:39.427Z,40.43
2019-03-24T15:42:09.416Z,41.30
2019-03-24T15:44:39.727Z,38.93
2019-03-24T15:47:10.006Z,40.15
2019-03-24T15:49:40.271Z,39.93
2019-03-24T15:52:10.142Z,39.73
2019-03-24T15:54:41.709Z,37.90
2019-03-24T15:57:15.011Z,40.60
2019-03-24T15:59:47.623Z,40.10
2019-03-24T16:02:19.052Z,41.37
2019-03-24T16:04:49.053Z,40.60
2019-03-24T16:07:19.992Z,40.17
2019-03-24T16:09:51.949Z,40.83
2019-03-24T16:12:22.925Z,39.65
2019-03-24T16:14:53.361Z,41.97
2019-03-24T16:17:23.508Z,38.77
2019-03-24T16:19:56.507Z,39.17
2019-03-24T16:22:30.860Z,37.85
2019-03-24T16:25:00.830Z,41.30
2019-03-24T16:27:30.769Z,40.80
2019-03-24T16:30:00.955Z,42.65
2019-03-24T16:32:31.476Z,36.70
2019-03-24T16:35:01.464Z,41.47
2019-03-24T16:37:32.574Z,39.70
2019-03-24T16:40:03.211Z,41.60
2019-03-24T16:42:33.145Z,39.85
2019-03-24T16:45:03.244Z,40.23
2019-03-24T16:47:33.683Z,39.53
2019-03-24T16:50:04.385Z,37.70
2019-03-24T16:52:35.425Z,39.30
2019-03-24T16:55:05.692Z,39.27
2019-03-24T16:57:35.733Z,38.28
2019-03-24T17:00:06.543Z,40.00
2019-03-24T17:02:38.471Z,40.03
2019-03-24T17:05:09.617Z,40.27
2019-03-24T17:07:39.548Z,38.17
2019-03-24T17:10:10.536Z,38.73
2019-03-24T17:12:40.425Z,37.43
2019-03-24T17:15:13.049Z,39.13
2019-03-24T17:17:47.944Z,63.00
2019-03-24T17:20:24.441Z,66.47
2019-03-24T17:22:54.410Z,51.50
2019-03-24T17:25:26.190Z,43.83
2019-03-24T17:27:59.557Z,46.37
2019-03-24T17:30:30.058Z,41.37
2019-03-24T17:33:01.485Z,41.37
2019-03-24T17:35:33.862Z,42.83
2019-03-24T17:38:04.548Z,43.17
2019-03-24T17:40:38.777Z,40.43
2019-03-24T17:43:08.054Z,41.73
2019-03-24T17:45:37.985Z,39.70
2019-03-24T17:48:08.008Z,44.57
2019-03-24T17:50:38.796Z,43.43
2019-03-24T17:53:08.681Z,37.78
2019-03-24T17:55:39.161Z,39.77
2019-03-24T17:58:09.286Z,39.40
2019-03-24T18:00:42.781Z,38.40
2019-03-24T18:03:14.740Z,39.40
2019-03-24T18:05:45.400Z,41.13
2019-03-24T18:08:15.909Z,40.52
2019-03-24T18:10:46.262Z,42.77
2019-03-24T18:13:17.656Z,48.00
2019-03-24T18:15:47.588Z,49.70
2019-03-24T18:18:18.551Z,49.13
2019-03-24T18:20:50.758Z,52.50
2019-03-24T18:23:21.079Z,49.80
2019-03-24T18:25:51.042Z,50.67
2019-03-24T18:28:20.985Z,50.97
2019-03-24T18:30:51.033Z,54.10
2019-03-24T18:33:22.160Z,54.03
2019-03-24T18:35:52.993Z,53.50
2019-03-24T18:38:23.327Z,54.53
2019-03-24T18:40:55.395Z,57.60
2019-03-24T18:43:25.372Z,57.83
2019-03-24T18:45:55.305Z,57.53
2019-03-24T18:48:26.949Z,58.17
2019-03-24T18:50:57.521Z,57.63
2019-03-24T18:53:29.220Z,58.73
2019-03-24T18:55:59.198Z,60.40
2019-03-24T18:58:31.885Z,60.37
2019-03-24T19:01:01.865Z,57.23
2019-03-24T19:03:32.235Z,58.10
2019-03-24T19:06:02.580Z,57.60
2019-03-24T19:08:32.864Z,59.60
2019-03-24T19:11:03.223Z,59.80
2019-03-24T19:13:34.520Z,56.83
2019-03-24T19:16:04.572Z,56.87
2019-03-24T19:18:35.079Z,58.83
2019-03-24T19:21:05.181Z,58.77
2019-03-24T19:23:35.424Z,60.03
2019-03-24T19:26:06.465Z,56.77
2019-03-24T19:28:36.684Z,55.33
2019-03-24T19:31:07.508Z,54.18
2019-03-24T19:33:38.314Z,53.30
2019-03-24T19:36:08.549Z,53.77
2019-03-24T19:38:41.796Z,55.37
2019-03-24T19:41:12.036Z,56.27
2019-03-24T19:43:42.081Z,52.87
2019-03-24T19:46:13.025Z,56.93
2019-03-24T19:48:43.488Z,54.00
2019-03-24T19:51:16.412Z,57.27
2019-03-24T19:53:46.596Z,55.00
2019-03-24T19:56:18.779Z,51.88
2019-03-24T19:58:48.709Z,56.30
2019-03-24T20:01:18.921Z,55.52
2019-03-24T20:03:52.420Z,55.20
2019-03-24T20:06:24.726Z,56.92
2019-03-24T20:08:54.909Z,57.93
2019-03-24T20:11:25.047Z,56.50
2019-03-24T20:13:54.960Z,55.43
2019-03-24T20:16:27.437Z,56.43
2019-03-24T20:18:59.399Z,54.90
2019-03-24T20:21:29.858Z,56.13
2019-03-24T20:23:59.896Z,55.73
2019-03-24T20:26:30.054Z,55.50
2019-03-24T20:29:00.611Z,56.20
2019-03-24T20:31:33.617Z,54.70
2019-03-24T20:34:05.032Z,57.00
2019-03-24T20:36:38.368Z,56.50
2019-03-24T20:39:09.884Z,54.85
2019-03-24T20:41:40.148Z,56.80
2019-03-24T20:44:11.368Z,55.90
2019-03-24T20:46:41.613Z,57.40
2019-03-24T20:49:12.439Z,58.20
2019-03-24T20:51:43.388Z,59.20
2019-03-24T20:54:13.343Z,56.63
2019-03-24T20:56:43.728Z,57.10
2019-03-24T20:59:14.515Z,56.70
2019-03-24T21:01:44.704Z,57.63
2019-03-24T21:04:15.580Z,55.87
2019-03-24T21:06:45.865Z,62.43
2019-03-24T21:09:16.067Z,59.17
2019-03-24T21:11:46.113Z,59.47
2019-03-24T21:14:17.342Z,59.75
2019-03-24T21:16:48.821Z,59.27
2019-03-24T21:19:19.416Z,61.88
2019-03-24T21:21:49.643Z,60.50
2019-03-24T21:24:19.992Z,60.37
2019-03-24T21:26:50.165Z,58.77
2019-03-24T21:29:20.527Z,60.73
2019-03-24T21:31:51.137Z,62.93
2019-03-24T21:34:24.183Z,61.20
2019-03-24T21:36:55.545Z,60.40
2019-03-24T21:39:27.234Z,61.60
2019-03-24T21:41:57.533Z,58.97
2019-03-24T21:44:27.514Z,64.13
2019-03-24T21:46:57.857Z,61.23
2019-03-24T21:49:28.360Z,64.83
2019-03-24T21:51:58.477Z,63.53
2019-03-24T21:54:28.388Z,62.47
2019-03-24T21:56:58.332Z,60.67
2019-03-24T21:59:28.289Z,66.90
2019-03-24T22:01:58.238Z,65.10
2019-03-24T22:04:28.481Z,64.87
2019-03-24T22:07:00.134Z,67.57
2019-03-24T22:09:30.297Z,64.50
2019-03-24T22:12:00.857Z,63.80
2019-03-24T22:14:30.780Z,63.23
2019-03-24T22:17:00.754Z,66.17
2019-03-24T22:19:30.708Z,63.33
2019-03-24T22:22:00.757Z,65.78
2019-03-24T22:24:30.980Z,68.55
2019-03-24T22:27:00.932Z,64.67
2019-03-24T22:29:31.092Z,62.73
2019-03-24T22:32:01.013Z,64.00
2019-03-24T22:34:31.424Z,58.70
2019-03-24T22:37:02.010Z,64.00
2019-03-24T22:39:31.952Z,61.03
2019-03-24T22:42:01.909Z,65.43
2019-03-24T22:44:32.301Z,63.93
2019-03-24T22:47:02.255Z,64.60
2019-03-24T22:49:35.336Z,61.88
2019-03-24T22:52:07.528Z,64.07
2019-03-24T22:54:38.648Z,63.13
2019-03-24T22:57:08.613Z,67.50
2019-03-24T22:59:38.642Z,65.22
2019-03-24T23:02:11.750Z,66.10
2019-03-24T23:04:43.010Z,64.05
2019-03-24T23:07:13.298Z,64.90
2019-03-24T23:09:43.212Z,63.93
2019-03-24T23:12:13.196Z,63.20
2019-03-24T23:14:43.478Z,60.07
2019-03-24T23:17:13.465Z,63.03
2019-03-24T23:19:44.783Z,62.60
2019-03-24T23:22:16.479Z,65.17
2019-03-24T23:24:46.576Z,59.37
2019-03-24T23:27:17.844Z,60.30
2019-03-24T23:29:48.213Z,60.33
2019-03-24T23:32:18.614Z,61.60
2019-03-24T23:34:51.146Z,59.17
2019-03-24T23:37:21.022Z,60.40
2019-03-24T23:39:51.316Z,63.63
2019-03-24T23:42:21.284Z,61.77
2019-03-24T23:44:51.206Z,62.70
2019-03-24T23:47:21.180Z,64.67
2019-03-24T23:49:51.960Z,59.63
2019-03-24T23:52:21.914Z,61.48
2019-03-24T23:54:52.147Z,63.70
2019-03-24T23:57:24.437Z,62.20
2019-03-24T23:59:55.361Z,60.40
